Time;durP1;ratioP1;P1;durP2;ratioP2;P2;SDS_P1;SDS_P2;PMS_P1;PMS_P2;Temp;Humidity;BMP_temperature;BMP_pressure;BME280_temperature;BME280_humidity;BME280_pressure;Samples;Min_cycle;Max_cycle;Signal;HPM_P1;HPM_P2
2022/01/16 00:02:08;;;;;;;0.10;0.10;;;1.40;99.90;;;;;;4969078;28;20631;-71
2022/01/16 00:04:34;;;;;;;0.10;0.10;;;1.40;99.90;;;;;;4962654;28;20668;-71
2022/01/16 00:07:04;;;;;;;0.10;0.10;;;1.40;99.90;;;;;;4975510;28;20658;-71
2022/01/16 00:09:32;;;;;;;0.10;0.10;;;1.40;99.90;;;;;;4965202;28;20715;-71
2022/01/16 00:12:01;;;;;;;0.20;0.20;;;1.40;99.90;;;;;;4973369;28;20782;-72
2022/01/16 00:14:30;;;;;;;0.20;0.20;;;1.40;99.90;;;;;;4977302;28;20685;-71
2022/01/16 00:16:57;;;;;;;0.10;0.10;;;1.40;99.90;;;;;;4973955;28;20680;-71
2022/01/16 00:19:24;;;;;;;0.10;0.10;;;1.40;99.90;;;;;;4969288;28;20632;-71
2022/01/16 00:21:51;;;;;;;0.20;0.20;;;1.40;99.90;;;;;;4972395;28;20641;-69
2022/01/16 00:24:18;;;;;;;0.10;0.10;;;1.30;99.90;;;;;;4990087;28;20644;-69
2022/01/16 00:26:45;;;;;;;0.10;0.10;;;1.30;99.90;;;;;;4991862;28;20615;-71
2022/01/16 00:29:14;;;;;;;0.10;0.10;;;1.30;99.90;;;;;;4970016;28;20663;-71
2022/01/16 00:31:42;;;;;;;0.10;0.10;;;1.30;99.90;;;;;;4980567;28;20646;-71
2022/01/16 00:34:11;;;;;;;0.20;0.20;;;1.30;99.90;;;;;;4990034;28;20691;-71
2022/01/16 00:36:38;;;;;;;0.17;0.17;;;1.20;99.90;;;;;;4989948;28;20617;-70
2022/01/16 00:39:05;;;;;;;0.17;0.17;;;1.20;99.90;;;;;;4989437;28;20600;-69
2022/01/16 00:41:34;;;;;;;0.10;0.10;;;1.20;99.90;;;;;;4982673;28;20627;-69
2022/01/16 00:44:01;;;;;;;0.20;0.20;;;1.20;99.90;;;;;;4975256;28;20699;-69
2022/01/16 00:46:29;;;;;;;0.10;0.10;;;1.20;99.90;;;;;;4962880;28;20683;-70
2022/01/16 00:48:56;;;;;;;0.10;0.10;;;1.20;99.90;;;;;;4970303;28;20725;-70
2022/01/16 00:51:23;;;;;;;0.10;0.10;;;1.20;99.90;;;;;;4972663;28;20628;-69
2022/01/16 00:53:50;;;;;;;0.20;0.20;;;1.20;99.90;;;;;;4971948;28;20678;-70
2022/01/16 00:56:17;;;;;;;0.10;0.10;;;1.20;99.90;;;;;;4980683;28;21036;-69
2022/01/16 00:58:44;;;;;;;0.10;0.10;;;1.10;99.90;;;;;;4985261;28;20607;-69
2022/01/16 01:01:11;;;;;;;0.10;0.10;;;1.10;99.90;;;;;;4966679;28;20656;-69
2022/01/16 01:03:40;;;;;;;0.10;0.10;;;1.10;99.90;;;;;;4969734;28;20661;-69
2022/01/16 01:06:08;;;;;;;0.20;0.20;;;1.10;99.90;;;;;;4975314;28;20609;-69
2022/01/16 01:08:35;;;;;;;0.17;0.17;;;1.10;99.90;;;;;;4962365;28;20648;-69
2022/01/16 01:11:06;;;;;;;0.10;0.10;;;1.10;99.90;;;;;;4962842;28;20747;-71
2022/01/16 01:13:44;;;;;;;0.10;0.10;;;1.10;99.90;;;;;;4962860;28;20686;-70
2022/01/16 01:16:15;;;;;;;0.20;0.20;;;1.10;99.90;;;;;;4968243;28;20628;-69
2022/01/16 01:18:44;;;;;;;0.10;0.10;;;1.10;99.90;;;;;;4965887;28;20653;-69
2022/01/16 01:21:24;;;;;;;0.10;0.10;;;1.10;99.90;;;;;;4985324;28;20616;-69
2022/01/16 01:23:51;;;;;;;0.20;0.20;;;1.10;99.90;;;;;;4968150;28;20666;-69
2022/01/16 01:26:20;;;;;;;0.10;0.10;;;1.10;99.90;;;;;;4962185;28;20660;-69
2022/01/16 01:28:46;;;;;;;0.10;0.10;;;1.00;99.90;;;;;;4962056;28;20655;-69
2022/01/16 01:31:13;;;;;;;0.10;0.10;;;1.00;99.90;;;;;;4968073;28;20624;-68
2022/01/16 01:33:40;;;;;;;0.10;0.10;;;1.00;99.90;;;;;;4988098;28;20652;-71
2022/01/16 01:36:09;;;;;;;0.20;0.20;;;0.90;99.90;;;;;;4965537;28;20636;-71
2022/01/16 01:38:36;;;;;;;0.10;0.10;;;0.90;99.90;;;;;;4969129;28;20628;-71
2022/01/16 01:41:03;;;;;;;0.10;0.10;;;0.90;99.90;;;;;;4970891;28;20636;-70
2022/01/16 01:51:46;;;;;;;0.13;0.13;;;0.80;99.90;;;;;;4969191;28;20605;-71
2022/01/16 01:54:14;;;;;;;0.10;0.10;;;0.70;99.90;;;;;;4998458;28;20229;-71
2022/01/16 01:56:41;;;;;;;0.10;0.10;;;0.70;99.90;;;;;;4984774;28;21139;-71
2022/01/16 01:59:10;;;;;;;0.10;0.10;;;0.70;99.90;;;;;;4979679;28;20620;-71
2022/01/16 02:01:37;;;;;;;0.10;0.10;;;0.60;99.90;;;;;;4966050;28;20631;-71
2022/01/16 02:04:05;;;;;;;0.10;0.10;;;0.60;99.90;;;;;;4973560;28;20650;-71
2022/01/16 02:06:33;;;;;;;0.20;0.20;;;0.60;99.90;;;;;;4996977;28;20611;-71
2022/01/16 02:09:04;;;;;;;0.10;0.10;;;0.60;99.90;;;;;;4970831;28;20696;-71
2022/01/16 02:11:32;;;;;;;0.20;0.20;;;0.60;99.90;;;;;;4974569;28;20246;-71
2022/01/16 02:14:06;;;;;;;0.17;0.17;;;0.60;99.90;;;;;;4998830;28;20245;-71
2022/01/16 02:31:00;;;;;;;0.15;0.15;;;0.50;99.90;;;;;;4996192;28;20647;-69
2022/01/16 02:36:25;;;;;;;0.13;0.13;;;0.50;99.90;;;;;;4979947;28;20193;-69
2022/01/16 02:38:57;;;;;;;0.20;0.20;;;0.50;99.90;;;;;;4971895;28;20201;-69
2022/01/16 02:41:25;;;;;;;0.20;0.20;;;0.50;99.90;;;;;;4988396;28;20259;-69
2022/01/16 02:43:54;;;;;;;0.10;0.10;;;0.50;99.90;;;;;;4974397;28;20217;-69
2022/01/16 02:46:39;;;;;;;0.20;0.20;;;0.50;99.90;;;;;;4980265;28;20752;-69
2022/01/16 02:49:22;;;;;;;0.20;0.20;;;0.50;99.90;;;;;;4990351;28;20228;-68
2022/01/16 02:51:49;;;;;;;0.10;0.10;;;0.50;99.90;;;;;;4990784;28;20217;-69
2022/01/16 02:54:18;;;;;;;0.30;0.30;;;0.50;99.90;;;;;;4980245;28;20225;-69
2022/01/16 02:56:48;;;;;;;0.20;0.20;;;0.50;99.90;;;;;;4987014;28;20711;-69
2022/01/16 02:59:15;;;;;;;0.17;0.17;;;0.50;99.90;;;;;;4971067;28;20707;-68
2022/01/16 03:01:42;;;;;;;0.10;0.10;;;0.50;99.90;;;;;;4971217;28;20210;-69
2022/01/16 03:04:09;;;;;;;0.20;0.20;;;0.50;99.90;;;;;;4972119;28;20210;-69
2022/01/16 03:06:36;;;;;;;0.10;0.10;;;0.50;99.90;;;;;;4974769;28;20292;-69
2022/01/16 03:09:06;;;;;;;0.20;0.20;;;0.50;99.90;;;;;;4991834;28;20730;-69
2022/01/16 03:11:36;;;;;;;0.20;0.20;;;0.50;99.90;;;;;;4974397;28;20197;-69
2022/01/16 03:14:03;;;;;;;0.10;0.10;;;0.50;99.90;;;;;;4992585;28;20747;-69
2022/01/16 03:16:30;;;;;;;0.20;0.20;;;0.50;99.90;;;;;;4970275;28;20206;-69
2022/01/16 03:21:55;;;;;;;0.10;0.10;;;0.50;99.90;;;;;;4984849;28;20190;-69
2022/01/16 03:24:25;;;;;;;0.20;0.20;;;0.50;99.90;;;;;;4963842;28;20349;-69
2022/01/16 03:26:55;;;;;;;0.20;0.20;;;0.50;99.90;;;;;;4982839;28;20205;-69
2022/01/16 03:29:22;;;;;;;0.20;0.20;;;0.50;99.90;;;;;;4980612;28;20622;-69
2022/01/16 03:31:50;;;;;;;0.20;0.20;;;0.50;99.90;;;;;;4991704;28;20202;-69
2022/01/16 03:34:17;;;;;;;0.20;0.20;;;0.50;99.90;;;;;;4971737;28;20279;-69
2022/01/16 03:36:45;;;;;;;0.20;0.20;;;0.50;99.90;;;;;;4969505;28;20213;-69
2022/01/16 03:39:12;;;;;;;0.20;0.20;;;0.50;99.90;;;;;;4969735;28;20255;-69
2022/01/16 03:41:39;;;;;;;0.10;0.10;;;0.50;99.90;;;;;;4965725;28;20206;-69
2022/01/16 03:44:08;;;;;;;0.20;0.20;;;0.40;99.90;;;;;;4971014;28;20221;-68
2022/01/16 03:46:38;;;;;;;0.10;0.10;;;0.40;99.90;;;;;;4989814;28;20686;-69
2022/01/16 03:49:07;;;;;;;0.10;0.10;;;0.40;99.90;;;;;;4983121;28;20236;-69
2022/01/16 03:51:34;;;;;;;0.20;0.20;;;0.40;99.90;;;;;;4968751;28;20198;-69
2022/01/16 03:54:01;;;;;;;0.20;0.20;;;0.30;99.90;;;;;;4967525;28;20283;-69
2022/01/16 03:56:28;;;;;;;0.20;0.20;;;0.30;99.90;;;;;;4974331;28;20210;-69
2022/01/16 03:58:55;;;;;;;0.20;0.20;;;0.30;99.90;;;;;;4986527;28;20193;-69
2022/01/16 04:01:25;;;;;;;0.10;0.10;;;0.30;99.90;;;;;;4978219;28;20293;-69
2022/01/16 04:03:52;;;;;;;0.20;0.20;;;0.30;99.90;;;;;;4974821;28;20316;-69
2022/01/16 04:06:20;;;;;;;0.10;0.10;;;0.30;99.90;;;;;;4972412;28;20208;-69
2022/01/16 04:08:47;;;;;;;0.10;0.10;;;0.30;99.90;;;;;;4969196;28;20228;-69
2022/01/16 04:11:14;;;;;;;0.20;0.20;;;0.30;99.90;;;;;;4963290;28;20215;-69
2022/01/16 04:13:49;;;;;;;0.20;0.20;;;0.30;99.90;;;;;;4975311;28;20257;-69
2022/01/16 04:16:17;;;;;;;0.20;0.20;;;0.30;99.90;;;;;;4978121;28;20627;-69
2022/01/16 04:18:50;;;;;;;0.20;0.20;;;0.20;99.90;;;;;;4973335;28;20202;-69
2022/01/16 04:21:17;;;;;;;0.17;0.17;;;0.20;99.90;;;;;;4968361;28;20259;-70
2022/01/16 04:23:44;;;;;;;0.20;0.20;;;0.20;99.90;;;;;;4993661;28;20275;-70
2022/01/16 04:26:11;;;;;;;0.10;0.10;;;0.20;99.90;;;;;;4972344;28;20212;-70
2022/01/16 04:28:38;;;;;;;0.20;0.20;;;0.20;99.90;;;;;;4973680;28;20252;-71
2022/01/16 04:31:05;;;;;;;0.20;0.20;;;0.20;99.90;;;;;;4971649;28;20303;-71
2022/01/16 04:33:31;;;;;;;0.20;0.20;;;0.20;99.90;;;;;;4975204;28;20217;-70
2022/01/16 04:36:00;;;;;;;0.10;0.10;;;0.20;99.90;;;;;;4968573;28;20210;-71
2022/01/16 04:38:27;;;;;;;0.20;0.20;;;0.20;99.90;;;;;;4962824;28;20209;-71
2022/01/16 04:43:48;;;;;;;0.20;0.20;;;0.20;99.90;;;;;;4986669;28;20219;-71
2022/01/16 04:46:15;;;;;;;0.10;0.10;;;0.20;99.90;;;;;;4971414;28;20586;-71
2022/01/16 04:48:42;;;;;;;0.10;0.10;;;0.20;99.90;;;;;;4966378;28;20212;-71
2022/01/16 04:51:11;;;;;;;0.10;0.10;;;0.20;99.90;;;;;;4968110;28;20229;-71
2022/01/16 04:53:39;;;;;;;0.20;0.20;;;0.20;99.90;;;;;;4986119;28;20221;-71
2022/01/16 04:56:06;;;;;;;0.20;0.20;;;0.20;99.90;;;;;;4969859;28;20197;-70
2022/01/16 04:58:34;;;;;;;0.20;0.20;;;0.20;99.90;;;;;;4964078;28;20205;-71
2022/01/16 05:01:02;;;;;;;0.20;0.20;;;0.20;99.90;;;;;;4968340;28;20251;-71
2022/01/16 05:03:30;;;;;;;0.20;0.20;;;0.20;99.90;;;;;;4971163;28;20334;-70
2022/01/16 05:05:58;;;;;;;0.17;0.17;;;0.10;99.90;;;;;;4962350;28;20211;-71
2022/01/16 05:08:28;;;;;;;0.20;0.20;;;0.10;99.90;;;;;;4974550;28;20699;-71
2022/01/16 05:10:56;;;;;;;0.20;0.20;;;0.20;99.90;;;;;;4986429;28;20230;-71
2022/01/16 05:13:31;;;;;;;0.15;0.15;;;0.10;99.90;;;;;;4971196;28;20223;-71
2022/01/16 05:18:44;;;;;;;0.20;0.20;;;0.20;99.90;;;;;;4984776;28;20202;-71
2022/01/16 05:21:11;;;;;;;0.20;0.20;;;0.20;99.90;;;;;;4986478;28;20256;-71
2022/01/16 05:23:41;;;;;;;0.20;0.20;;;0.20;99.90;;;;;;4973077;28;20217;-71
2022/01/16 05:26:08;;;;;;;0.20;0.20;;;0.20;99.90;;;;;;4967817;28;20236;-71
2022/01/16 05:28:35;;;;;;;0.10;0.10;;;0.20;99.90;;;;;;4966989;28;20212;-71
2022/01/16 05:31:02;;;;;;;0.10;0.10;;;0.20;99.90;;;;;;4984079;28;20240;-70
2022/01/16 05:33:29;;;;;;;0.20;0.20;;;0.20;99.90;;;;;;4970771;28;20282;-70
2022/01/16 05:35:56;;;;;;;0.20;0.20;;;0.20;99.90;;;;;;4969846;28;20215;-71
2022/01/16 05:38:23;;;;;;;0.10;0.10;;;0.20;99.90;;;;;;4969633;28;20201;-70
2022/01/16 05:40:52;;;;;;;0.20;0.20;;;0.20;99.90;;;;;;4998937;28;20242;-70
2022/01/16 05:43:19;;;;;;;0.20;0.20;;;0.20;99.90;;;;;;4988138;28;20221;-70
2022/01/16 05:45:45;;;;;;;0.10;0.10;;;0.20;99.90;;;;;;4997079;28;20286;-71
2022/01/16 05:48:12;;;;;;;0.20;0.20;;;0.20;99.90;;;;;;4974024;28;20198;-71
2022/01/16 05:50:39;;;;;;;0.20;0.20;;;0.10;99.90;;;;;;4970321;28;20223;-71
2022/01/16 05:53:06;;;;;;;0.20;0.20;;;0.10;99.90;;;;;;4966814;28;20202;-71
2022/01/16 05:55:36;;;;;;;0.10;0.10;;;0.10;99.90;;;;;;4980751;28;20196;-71
2022/01/16 05:58:05;;;;;;;0.20;0.20;;;0.10;99.90;;;;;;4978771;28;20205;-70
2022/01/16 06:00:32;;;;;;;0.10;0.10;;;0.10;99.90;;;;;;4972508;28;20201;-71
2022/01/16 06:02:59;;;;;;;0.10;0.10;;;0.10;99.90;;;;;;4967275;28;20201;-71
2022/01/16 06:05:27;;;;;;;0.20;0.20;;;0.10;99.90;;;;;;4969035;28;20279;-71
2022/01/16 06:07:57;;;;;;;0.10;0.10;;;0.10;99.90;;;;;;4967375;28;20206;-71
2022/01/16 06:10:24;;;;;;;0.15;0.15;;;0.00;99.90;;;;;;4969032;28;20228;-69
2022/01/16 06:12:52;;;;;;;0.20;0.20;;;0.00;99.90;;;;;;4970383;28;20201;-69
2022/01/16 06:15:21;;;;;;;0.10;0.10;;;0.00;99.90;;;;;;4991745;28;20257;-69
2022/01/16 06:17:48;;;;;;;0.20;0.20;;;0.00;99.90;;;;;;4977028;28;20316;-69
2022/01/16 06:20:15;;;;;;;0.10;0.10;;;0.00;99.90;;;;;;4987652;28;20225;-69
2022/01/16 06:22:42;;;;;;;0.20;0.20;;;0.00;99.90;;;;;;4985004;28;20194;-69
2022/01/16 06:25:10;;;;;;;0.20;0.20;;;0.00;99.90;;;;;;5010089;23;20761;-68
2022/01/16 06:27:37;;;;;;;0.20;0.20;;;0.00;99.90;;;;;;5011731;28;20300;-67
2022/01/16 06:30:06;;;;;;;0.20;0.20;;;0.00;99.90;;;;;;5012441;28;20208;-68
2022/01/16 06:32:34;;;;;;;0.20;0.20;;;0.00;99.90;;;;;;5009606;28;20217;-67
2022/01/16 06:35:01;;;;;;;0.20;0.20;;;-0.10;99.90;;;;;;5007758;28;20251;-68
2022/01/16 06:37:28;;;;;;;0.20;0.20;;;-0.10;99.90;;;;;;5010691;23;20232;-70
2022/01/16 06:39:55;;;;;;;0.10;0.10;;;-0.10;99.90;;;;;;4992749;28;20295;-71
2022/01/16 06:42:22;;;;;;;0.10;0.10;;;-0.10;99.90;;;;;;5002170;28;20270;-71
2022/01/16 06:44:48;;;;;;;0.20;0.20;;;-0.10;99.90;;;;;;4985535;28;20233;-71
2022/01/16 06:47:16;;;;;;;0.20;0.20;;;-0.10;99.90;;;;;;4985562;28;20193;-71
2022/01/16 06:49:44;;;;;;;0.20;0.20;;;-0.10;99.90;;;;;;4996679;28;20593;-71
2022/01/16 06:52:11;;;;;;;0.20;0.20;;;-0.10;99.90;;;;;;4988959;28;20207;-71
2022/01/16 06:54:39;;;;;;;0.20;0.20;;;0.00;99.90;;;;;;4987737;28;20291;-71
2022/01/16 06:57:06;;;;;;;0.20;0.20;;;-0.10;99.90;;;;;;4983183;28;20244;-71
2022/01/16 06:59:35;;;;;;;0.13;0.13;;;-0.10;99.90;;;;;;4990921;28;20208;-71
2022/01/16 07:02:02;;;;;;;0.20;0.20;;;-0.10;99.90;;;;;;4998061;28;20276;-71
2022/01/16 07:04:29;;;;;;;0.13;0.13;;;-0.10;99.90;;;;;;4986812;28;20228;-71
2022/01/16 07:06:58;;;;;;;0.20;0.20;;;-0.10;99.90;;;;;;4991829;28;20217;-71
2022/01/16 07:09:25;;;;;;;0.10;0.10;;;-0.20;99.90;;;;;;4979789;28;20225;-71
2022/01/16 07:11:52;;;;;;;0.20;0.20;;;-0.20;99.90;;;;;;4986731;28;20253;-69
2022/01/16 07:14:18;;;;;;;0.20;0.20;;;-0.20;99.90;;;;;;4985710;28;20274;-69
2022/01/16 07:16:45;;;;;;;0.20;0.20;;;-0.20;99.90;;;;;;4984690;28;20201;-68
2022/01/16 07:19:12;;;;;;;0.20;0.20;;;-0.20;99.90;;;;;;4985632;28;20193;-71
2022/01/16 07:21:39;;;;;;;0.10;0.10;;;-0.20;99.90;;;;;;4983463;28;20198;-71
2022/01/16 07:24:09;;;;;;;0.20;0.20;;;-0.20;99.90;;;;;;4987546;28;20221;-71
2022/01/16 07:26:36;;;;;;;0.20;0.20;;;-0.20;99.90;;;;;;4988458;28;20205;-71
2022/01/16 07:29:03;;;;;;;0.20;0.20;;;-0.10;99.90;;;;;;4998233;28;20201;-71
2022/01/16 07:31:29;;;;;;;0.20;0.20;;;-0.10;99.90;;;;;;4993809;28;20252;-71
2022/01/16 07:33:58;;;;;;;0.20;0.20;;;-0.10;99.90;;;;;;4981679;28;20234;-71
2022/01/16 07:36:25;;;;;;;0.20;0.20;;;-0.10;99.90;;;;;;4991828;28;20209;-71
2022/01/16 07:38:52;;;;;;;0.10;0.10;;;0.00;99.90;;;;;;4997099;28;20212;-71
2022/01/16 07:41:21;;;;;;;0.20;0.20;;;0.00;99.90;;;;;;4995061;28;20228;-71
2022/01/16 07:43:48;;;;;;;0.20;0.20;;;0.10;99.90;;;;;;4992798;28;20217;-71
2022/01/16 07:46:17;;;;;;;0.10;0.10;;;0.10;99.90;;;;;;4980721;28;20300;-68
2022/01/16 07:48:44;;;;;;;0.20;0.20;;;0.10;99.90;;;;;;4993667;28;20205;-69
2022/01/16 07:51:11;;;;;;;0.20;0.20;;;0.20;99.90;;;;;;4984666;28;20300;-69
2022/01/16 07:53:38;;;;;;;0.20;0.20;;;0.20;99.90;;;;;;4985920;28;20222;-71
2022/01/16 07:56:05;;;;;;;0.20;0.20;;;0.30;99.90;;;;;;4994033;28;20197;-74
2022/01/16 07:58:33;;;;;;;0.10;0.10;;;0.30;99.90;;;;;;4982364;28;20194;-72
2022/01/16 08:01:03;;;;;;;0.10;0.10;;;0.40;99.90;;;;;;4984844;28;20209;-76
2022/01/16 08:03:30;;;;;;;0.10;0.10;;;0.40;99.90;;;;;;4982396;28;20229;-70
2022/01/16 08:05:58;;;;;;;0.20;0.20;;;0.50;99.90;;;;;;4980514;28;20221;-69
2022/01/16 08:08:24;;;;;;;0.20;0.20;;;0.50;99.90;;;;;;4983541;28;20206;-70
2022/01/16 08:10:51;;;;;;;0.20;0.20;;;0.60;99.90;;;;;;4987034;28;20221;-69
2022/01/16 08:13:18;;;;;;;0.10;0.10;;;0.60;99.90;;;;;;4986679;28;20217;-68
2022/01/16 08:15:49;;;;;;;0.20;0.20;;;0.60;99.90;;;;;;4987275;28;20194;-69
2022/01/16 08:18:16;;;;;;;0.20;0.20;;;0.70;99.90;;;;;;4986292;28;20221;-69
2022/01/16 08:20:42;;;;;;;0.17;0.17;;;0.70;99.90;;;;;;4984316;28;20252;-70
2022/01/16 08:23:09;;;;;;;0.10;0.10;;;0.70;99.90;;;;;;4990930;28;20202;-69
2022/01/16 08:25:36;;;;;;;0.10;0.10;;;0.80;99.90;;;;;;4996521;28;20201;-70
2022/01/16 08:28:04;;;;;;;0.20;0.20;;;0.80;99.90;;;;;;4983923;28;20198;-70
2022/01/16 08:30:32;;;;;;;0.20;0.20;;;0.90;99.90;;;;;;4990140;28;20221;-71
2022/01/16 08:33:00;;;;;;;0.17;0.17;;;0.90;99.90;;;;;;4983454;28;20625;-70
2022/01/16 08:35:27;;;;;;;0.17;0.17;;;1.00;99.90;;;;;;4991328;28;20211;-68
2022/01/16 08:37:54;;;;;;;0.20;0.20;;;1.00;99.90;;;;;;4992732;28;20241;-68
2022/01/16 08:40:21;;;;;;;0.10;0.10;;;1.00;99.90;;;;;;4989665;28;20197;-67
2022/01/16 08:42:48;;;;;;;0.20;0.20;;;1.00;99.90;;;;;;4992565;28;20193;-67
2022/01/16 08:45:15;;;;;;;0.20;0.20;;;1.10;99.90;;;;;;4997060;28;20343;-68
2022/01/16 08:47:44;;;;;;;0.20;0.20;;;1.10;99.90;;;;;;4989018;28;20630;-67
2022/01/16 08:50:14;;;;;;;0.20;0.20;;;1.10;99.90;;;;;;4991796;28;20691;-69
2022/01/16 08:52:42;;;;;;;0.10;0.10;;;1.20;99.90;;;;;;4986504;28;20621;-68
2022/01/16 08:55:11;;;;;;;0.20;0.20;;;1.30;99.90;;;;;;4985414;28;20683;-71
2022/01/16 08:57:39;;;;;;;0.20;0.20;;;1.40;99.90;;;;;;4990748;28;20211;-70
2022/01/16 09:00:08;;;;;;;0.10;0.10;;;1.50;99.90;;;;;;4990756;28;20636;-70
2022/01/16 09:02:35;;;;;;;0.10;0.10;;;1.60;99.90;;;;;;4991533;28;20636;-71
2022/01/16 09:05:03;;;;;;;0.20;0.20;;;1.70;99.90;;;;;;4978929;28;20676;-72
2022/01/16 09:07:33;;;;;;;0.10;0.10;;;1.80;99.90;;;;;;4977571;28;20612;-71
2022/01/16 09:10:01;;;;;;;0.10;0.10;;;1.90;99.90;;;;;;4980169;28;20640;-71
2022/01/16 09:12:29;;;;;;;0.10;0.10;;;1.90;99.90;;;;;;4972004;28;20661;-72
2022/01/16 09:14:58;;;;;;;0.20;0.20;;;2.00;99.90;;;;;;4981598;28;20712;-71
2022/01/16 09:17:25;;;;;;;0.10;0.10;;;2.10;99.90;;;;;;4974359;28;20633;-71
2022/01/16 09:19:52;;;;;;;0.10;0.10;;;2.10;99.90;;;;;;4977376;28;20683;-70
2022/01/16 09:22:19;;;;;;;0.10;0.10;;;2.20;99.90;;;;;;4975297;28;20601;-69
2022/01/16 09:24:47;;;;;;;0.10;0.10;;;2.20;99.90;;;;;;4981918;28;20673;-71
2022/01/16 09:27:14;;;;;;;0.10;0.10;;;2.30;99.90;;;;;;4989710;28;20619;-71
2022/01/16 09:29:41;;;;;;;0.20;0.20;;;2.40;99.90;;;;;;4991263;28;20645;-68
2022/01/16 09:32:11;;;;;;;0.10;0.10;;;2.40;99.90;;;;;;4991999;28;20755;-71
2022/01/16 09:34:38;;;;;;;0.10;0.10;;;2.40;99.90;;;;;;4983560;28;20661;-70
2022/01/16 09:37:08;;;;;;;0.10;0.10;;;2.40;99.90;;;;;;4980937;28;20639;-70
2022/01/16 09:39:36;;;;;;;0.10;0.10;;;2.50;99.90;;;;;;4984875;28;21205;-69
2022/01/16 09:42:06;;;;;;;0.10;0.10;;;2.50;99.90;;;;;;4971620;28;20613;-68
2022/01/16 09:44:35;;;;;;;0.10;0.10;;;2.50;99.90;;;;;;4978809;28;20663;-70
2022/01/16 09:47:02;;;;;;;0.20;0.20;;;2.60;99.90;;;;;;5003546;28;20636;-71
2022/01/16 09:49:32;;;;;;;0.20;0.20;;;2.60;99.90;;;;;;4987417;28;20665;-70
2022/01/16 09:55:07;;;;;;;0.20;0.20;;;2.70;99.90;;;;;;4978426;28;20631;-70
2022/01/16 09:57:36;;;;;;;0.10;0.10;;;2.70;99.90;;;;;;4972951;28;20631;-69
2022/01/16 10:00:05;;;;;;;0.10;0.10;;;2.70;99.90;;;;;;4976282;28;20619;-72
2022/01/16 10:02:32;;;;;;;0.10;0.10;;;2.70;99.90;;;;;;4972105;28;20628;-70
2022/01/16 10:05:00;;;;;;;0.10;0.10;;;2.80;99.90;;;;;;4979523;28;20656;-71
2022/01/16 10:07:28;;;;;;;0.10;0.10;;;2.80;99.90;;;;;;4984271;28;20640;-71
2022/01/16 10:10:09;;;;;;;0.10;0.10;;;2.80;99.90;;;;;;4978655;28;20637;-71
2022/01/16 10:12:45;;;;;;;0.17;0.17;;;2.90;99.90;;;;;;4977092;28;20660;-71
2022/01/16 10:15:18;;;;;;;0.13;0.13;;;2.90;99.90;;;;;;4980339;28;20718;-71
2022/01/16 10:17:47;;;;;;;0.10;0.10;;;2.90;99.90;;;;;;4982946;28;21055;-73
2022/01/16 10:20:16;;;;;;;0.10;0.10;;;3.00;99.90;;;;;;4984648;28;20687;-70
2022/01/16 10:22:47;;;;;;;0.10;0.10;;;3.00;99.90;;;;;;4981625;28;20609;-68
2022/01/16 10:25:35;;;;;;;0.20;0.20;;;3.00;99.90;;;;;;4977133;28;20681;-69
2022/01/16 10:28:20;;;;;;;0.10;0.10;;;3.00;99.90;;;;;;4980764;28;20608;-68
2022/01/16 10:30:50;;;;;;;0.10;0.10;;;3.10;99.90;;;;;;4978895;28;21230;-68
2022/01/16 10:33:20;;;;;;;0.10;0.10;;;3.10;99.90;;;;;;4993546;28;20651;-68
2022/01/16 10:35:52;;;;;;;0.10;0.10;;;3.20;99.90;;;;;;4993967;28;20623;-67
2022/01/16 10:38:21;;;;;;;0.10;0.10;;;3.20;99.90;;;;;;4990138;28;20624;-68
2022/01/16 10:40:52;;;;;;;0.10;0.10;;;3.20;99.90;;;;;;4993817;28;20639;-66
2022/01/16 10:43:37;;;;;;;0.10;0.10;;;3.10;99.90;;;;;;4994873;28;20652;-68
2022/01/16 10:46:04;;;;;;;0.13;0.13;;;3.10;99.90;;;;;;4987269;28;20632;-67
2022/01/16 10:48:35;;;;;;;0.10;0.10;;;3.10;99.90;;;;;;4984433;28;20628;-71
2022/01/16 10:51:02;;;;;;;0.10;0.10;;;3.10;99.90;;;;;;4985660;28;20639;-66
2022/01/16 10:53:31;;;;;;;0.10;0.10;;;3.10;99.90;;;;;;4990806;28;20659;-66
2022/01/16 10:55:59;;;;;;;0.10;0.10;;;3.10;99.90;;;;;;4981648;28;20624;-69
2022/01/16 10:58:38;;;;;;;0.10;0.10;;;3.00;99.90;;;;;;4980881;28;20628;-66
2022/01/16 11:01:13;;;;;;;0.10;0.10;;;3.00;99.90;;;;;;4983833;28;20616;-68
2022/01/16 11:03:41;;;;;;;0.10;0.10;;;3.00;99.90;;;;;;4984708;28;20669;-67
2022/01/16 11:06:08;;;;;;;0.10;0.10;;;3.00;99.90;;;;;;4974055;28;20617;-67
2022/01/16 11:08:36;;;;;;;0.10;0.10;;;3.00;99.90;;;;;;4972697;28;20629;-68
2022/01/16 11:11:03;;;;;;;0.10;0.10;;;3.10;99.90;;;;;;4982504;28;20609;-67
2022/01/16 11:13:34;;;;;;;0.10;0.10;;;3.10;99.90;;;;;;4977537;28;20660;-67
2022/01/16 11:16:04;;;;;;;0.10;0.10;;;3.10;99.90;;;;;;4981158;28;20612;-70
2022/01/16 11:18:35;;;;;;;0.10;0.10;;;3.10;99.90;;;;;;4974126;28;20645;-69
2022/01/16 11:21:13;;;;;;;0.10;0.10;;;3.10;99.90;;;;;;4979398;28;21206;-69
2022/01/16 11:23:49;;;;;;;0.10;0.10;;;3.10;99.90;;;;;;4975349;28;20734;-69
2022/01/16 11:26:18;;;;;;;0.10;0.10;;;3.10;99.90;;;;;;4986727;28;20632;-69
2022/01/16 11:28:46;;;;;;;0.10;0.10;;;3.20;99.90;;;;;;4987883;28;20633;-69
2022/01/16 11:31:15;;;;;;;0.10;0.10;;;3.20;99.90;;;;;;4991459;28;20710;-70
2022/01/16 11:33:43;;;;;;;0.10;0.10;;;3.20;99.90;;;;;;4984552;28;20641;-69
2022/01/16 11:36:13;;;;;;;0.10;0.10;;;3.20;99.90;;;;;;4987764;28;20615;-70
2022/01/16 11:38:43;;;;;;;0.10;0.10;;;3.20;99.90;;;;;;4975804;28;20644;-70
2022/01/16 11:41:14;;;;;;;0.10;0.10;;;3.20;99.90;;;;;;4966422;28;20661;-70
2022/01/16 11:43:43;;;;;;;0.10;0.10;;;3.20;99.90;;;;;;4977356;28;20643;-70
2022/01/16 11:46:16;;;;;;;0.10;0.10;;;3.20;99.90;;;;;;4974307;28;20632;-70
2022/01/16 11:48:55;;;;;;;0.10;0.10;;;3.10;99.90;;;;;;4970733;28;20640;-70
2022/01/16 11:51:51;;;;;;;0.20;0.20;;;3.20;99.90;;;;;;4976903;28;20642;-70
2022/01/16 11:54:27;;;;;;;0.10;0.10;;;3.20;99.90;;;;;;4977357;28;20674;-70
2022/01/16 11:56:59;;;;;;;0.10;0.10;;;3.20;99.90;;;;;;4979168;28;20746;-70
2022/01/16 11:59:28;;;;;;;0.10;0.10;;;3.20;99.90;;;;;;4979422;28;20751;-70
2022/01/16 12:02:00;;;;;;;0.10;0.10;;;3.20;99.90;;;;;;4976469;28;20621;-70
2022/01/16 12:04:50;;;;;;;0.20;0.20;;;3.30;99.90;;;;;;4973422;28;20650;-70
2022/01/16 12:08:03;;;;;;;0.10;0.10;;;3.30;99.90;;;;;;4977503;28;20659;-68
2022/01/16 12:10:50;;;;;;;0.10;0.10;;;3.30;99.90;;;;;;4931683;28;20639;-70
2022/01/16 12:13:48;;;;;;;0.10;0.10;;;3.30;99.90;;;;;;4979616;28;20674;-67
2022/01/16 12:16:40;;;;;;;0.10;0.10;;;3.30;99.90;;;;;;4981898;28;20616;-70
2022/01/16 12:19:36;;;;;;;0.10;0.10;;;3.30;99.90;;;;;;4977195;28;20628;-69
2022/01/16 12:22:05;;;;;;;0.10;0.10;;;3.30;99.90;;;;;;4980171;28;20625;-69
2022/01/16 12:24:37;;;;;;;0.10;0.10;;;3.30;99.90;;;;;;4975849;28;20676;-70
2022/01/16 12:27:53;;;;;;;0.10;0.10;;;3.40;99.90;;;;;;4993009;28;20640;-68
2022/01/16 12:30:48;;;;;;;0.10;0.10;;;3.40;99.90;;;;;;4973674;28;20599;-71
2022/01/16 12:33:27;;;;;;;0.10;0.10;;;3.40;99.90;;;;;;4983163;28;20682;-71
2022/01/16 12:36:12;;;;;;;0.10;0.10;;;3.40;99.90;;;;;;4978054;28;20631;-68
2022/01/16 12:38:54;;;;;;;0.10;0.10;;;3.40;99.90;;;;;;4975156;28;20639;-71
2022/01/16 12:41:27;;;;;;;0.10;0.10;;;3.40;99.90;;;;;;4972097;28;20636;-71
2022/01/16 12:43:56;;;;;;;0.10;0.10;;;3.40;99.90;;;;;;4976654;28;20702;-68
2022/01/16 12:46:28;;;;;;;0.10;0.10;;;3.40;99.90;;;;;;4978498;28;20633;-71
2022/01/16 12:48:56;;;;;;;0.10;0.10;;;3.40;99.90;;;;;;4988535;28;20627;-69
2022/01/16 12:51:28;;;;;;;0.10;0.10;;;3.40;99.90;;;;;;4973821;28;20751;-68
2022/01/16 12:54:00;;;;;;;0.10;0.10;;;3.50;99.90;;;;;;4983027;28;20659;-69
2022/01/16 12:56:30;;;;;;;0.10;0.10;;;3.50;99.90;;;;;;4972461;28;21000;-70
2022/01/16 12:58:59;;;;;;;0.10;0.10;;;3.50;99.90;;;;;;4985859;28;20627;-71
2022/01/16 13:01:28;;;;;;;0.20;0.20;;;3.50;99.90;;;;;;4996002;28;20640;-71
2022/01/16 13:03:55;;;;;;;0.10;0.10;;;3.50;99.90;;;;;;4985985;28;20682;-69
2022/01/16 13:06:27;;;;;;;0.10;0.10;;;3.50;99.90;;;;;;4981728;28;20759;-70
2022/01/16 13:09:02;;;;;;;0.10;0.10;;;3.50;99.90;;;;;;4980837;28;20622;-69
2022/01/16 13:11:32;;;;;;;0.10;0.10;;;3.50;99.90;;;;;;4976985;28;20655;-76
2022/01/16 13:14:00;;;;;;;0.10;0.10;;;3.50;99.90;;;;;;4972772;28;20640;-66
2022/01/16 13:17:05;;;;;;;0.10;0.10;;;3.50;99.90;;;;;;4975078;28;20636;-71
2022/01/16 13:19:59;;;;;;;0.10;0.10;;;3.50;99.90;;;;;;4970936;28;20642;-70
2022/01/16 13:22:27;;;;;;;0.10;0.10;;;3.50;99.90;;;;;;4978730;28;20659;-72
2022/01/16 13:24:58;;;;;;;0.10;0.10;;;3.50;99.90;;;;;;4974025;28;20667;-71
2022/01/16 13:27:27;;;;;;;0.10;0.10;;;3.50;99.90;;;;;;4975395;28;20639;-68
2022/01/16 13:29:57;;;;;;;0.10;0.10;;;3.50;99.90;;;;;;4975688;28;20607;-68
2022/01/16 13:32:37;;;;;;;0.10;0.10;;;3.60;99.90;;;;;;4971317;28;20655;-70
2022/01/16 13:35:23;;;;;;;0.10;0.10;;;3.60;99.90;;;;;;4970027;28;21351;-69
2022/01/16 13:37:54;;;;;;;0.10;0.10;;;3.60;99.90;;;;;;4960426;28;20640;-68
2022/01/16 13:40:25;;;;;;;0.10;0.10;;;3.60;99.90;;;;;;4964907;28;20701;-69
2022/01/16 13:46:29;;;;;;;0.10;0.10;;;3.70;99.90;;;;;;4965834;28;20627;-69
2022/01/16 13:49:17;;;;;;;0.10;0.10;;;3.70;99.90;;;;;;4971530;28;20632;-70
2022/01/16 13:52:48;;;;;;;0.10;0.10;;;3.70;99.90;;;;;;4989343;28;20647;-71